sensor_id;sensor_type;location;lat;lon;timestamp;pressure;altitude;pressure_sealevel;temperature;humidity
66479;BME280;53294;47.912;13.526;2023-03-26T00:01:22;95717.31;;;9.53;46.67
66479;BME280;53294;47.912;13.526;2023-03-26T00:03:51;95715.16;;;9.56;46.66
66479;BME280;53294;47.912;13.526;2023-03-26T00:06:26;95714.03;;;9.57;46.43
66479;BME280;53294;47.912;13.526;2023-03-26T00:08:56;95721.00;;;9.58;46.76
66479;BME280;53294;47.912;13.526;2023-03-26T00:11:25;95720.88;;;9.63;46.36
66479;BME280;53294;47.912;13.526;2023-03-26T00:13:53;95717.84;;;9.56;45.71
66479;BME280;53294;47.912;13.526;2023-03-26T00:16:24;95712.06;;;9.62;46.46
66479;BME280;53294;47.912;13.526;2023-03-26T00:18:51;95714.91;;;9.66;46.16
66479;BME280;53294;47.912;13.526;2023-03-26T00:21:21;95716.63;;;9.76;46.12
66479;BME280;53294;47.912;13.526;2023-03-26T00:23:47;95717.41;;;9.76;46.02
66479;BME280;53294;47.912;13.526;2023-03-26T00:26:14;95722.66;;;9.67;46.29
66479;BME280;53294;47.912;13.526;2023-03-26T00:28:42;95718.59;;;9.70;45.94
66479;BME280;53294;47.912;13.526;2023-03-26T00:31:12;95713.94;;;9.62;46.22
66479;BME280;53294;47.912;13.526;2023-03-26T00:33:40;95706.50;;;9.59;46.90
66479;BME280;53294;47.912;13.526;2023-03-26T00:36:10;95705.50;;;9.55;47.20
66479;BME280;53294;47.912;13.526;2023-03-26T00:38:37;95713.56;;;9.55;47.85
66479;BME280;53294;47.912;13.526;2023-03-26T00:41:08;95707.47;;;9.63;47.70
66479;BME280;53294;47.912;13.526;2023-03-26T00:43:44;95701.16;;;9.45;47.88
66479;BME280;53294;47.912;13.526;2023-03-26T00:46:15;95694.91;;;9.36;48.18
66479;BME280;53294;47.912;13.526;2023-03-26T00:48:44;95697.78;;;9.39;48.38
66479;BME280;53294;47.912;13.526;2023-03-26T00:51:13;95694.00;;;9.40;48.33
66479;BME280;53294;47.912;13.526;2023-03-26T00:53:44;95694.41;;;9.33;48.34
66479;BME280;53294;47.912;13.526;2023-03-26T00:56:12;95686.06;;;9.35;48.65
66479;BME280;53294;47.912;13.526;2023-03-26T00:58:39;95686.47;;;9.42;48.52
66479;BME280;53294;47.912;13.526;2023-03-26T01:01:12;95673.94;;;9.38;48.30
66479;BME280;53294;47.912;13.526;2023-03-26T01:03:41;95676.13;;;9.49;48.48
66479;BME280;53294;47.912;13.526;2023-03-26T01:06:27;95673.94;;;9.38;48.33
66479;BME280;53294;47.912;13.526;2023-03-26T01:09:03;95676.34;;;9.39;48.86
66479;BME280;53294;47.912;13.526;2023-03-26T01:11:33;95664.63;;;9.35;48.73
66479;BME280;53294;47.912;13.526;2023-03-26T01:14:05;95658.66;;;9.38;48.78
66479;BME280;53294;47.912;13.526;2023-03-26T01:16:42;95655.09;;;9.29;48.86
66479;BME280;53294;47.912;13.526;2023-03-26T01:19:20;95656.19;;;9.28;48.79
66479;BME280;53294;47.912;13.526;2023-03-26T01:21:49;95642.00;;;9.27;49.06
66479;BME280;53294;47.912;13.526;2023-03-26T01:24:15;95657.28;;;9.41;48.98
66479;BME280;53294;47.912;13.526;2023-03-26T01:26:47;95660.66;;;9.46;48.87
66479;BME280;53294;47.912;13.526;2023-03-26T01:40:50;95641.97;;;9.41;49.47
66479;BME280;53294;47.912;13.526;2023-03-26T01:43:29;95649.13;;;9.32;49.46
66479;BME280;53294;47.912;13.526;2023-03-26T01:46:00;95649.81;;;9.51;49.06
66479;BME280;53294;47.912;13.526;2023-03-26T01:48:34;95653.50;;;9.56;49.23
66479;BME280;53294;47.912;13.526;2023-03-26T01:51:03;95651.50;;;9.47;49.27
66479;BME280;53294;47.912;13.526;2023-03-26T01:53:32;95650.41;;;9.48;49.61
66479;BME280;53294;47.912;13.526;2023-03-26T01:58:51;95647.53;;;9.45;49.58
66479;BME280;53294;47.912;13.526;2023-03-26T02:01:49;95655.66;;;9.53;49.66
66479;BME280;53294;47.912;13.526;2023-03-26T02:04:20;95656.97;;;9.42;49.92
66479;BME280;53294;47.912;13.526;2023-03-26T02:07:29;95658.34;;;9.53;49.63
66479;BME280;53294;47.912;13.526;2023-03-26T02:09:56;95647.94;;;9.38;49.93
66479;BME280;53294;47.912;13.526;2023-03-26T02:12:25;95648.94;;;9.28;50.23
66479;BME280;53294;47.912;13.526;2023-03-26T02:14:54;95644.50;;;9.10;50.83
66479;BME280;53294;47.912;13.526;2023-03-26T02:17:20;95645.09;;;9.21;50.80
66479;BME280;53294;47.912;13.526;2023-03-26T02:19:49;95646.88;;;9.11;51.27
66479;BME280;53294;47.912;13.526;2023-03-26T02:22:16;95636.63;;;9.13;50.87
66479;BME280;53294;47.912;13.526;2023-03-26T02:24:43;95633.47;;;9.11;50.81
66479;BME280;53294;47.912;13.526;2023-03-26T02:27:11;95645.78;;;9.12;51.13
66479;BME280;53294;47.912;13.526;2023-03-26T02:29:38;95652.81;;;9.08;51.39
66479;BME280;53294;47.912;13.526;2023-03-26T02:32:06;95648.97;;;9.14;51.24
66479;BME280;53294;47.912;13.526;2023-03-26T02:34:33;95638.84;;;9.11;51.40
66479;BME280;53294;47.912;13.526;2023-03-26T02:37:00;95640.50;;;9.07;51.66
66479;BME280;53294;47.912;13.526;2023-03-26T02:39:26;95641.63;;;9.06;51.60
66479;BME280;53294;47.912;13.526;2023-03-26T02:41:53;95638.94;;;9.06;51.83
66479;BME280;53294;47.912;13.526;2023-03-26T02:44:20;95643.41;;;8.97;51.77
66479;BME280;53294;47.912;13.526;2023-03-26T02:46:46;95640.03;;;9.05;51.88
66479;BME280;53294;47.912;13.526;2023-03-26T02:49:13;95647.75;;;8.93;51.68
66479;BME280;53294;47.912;13.526;2023-03-26T02:51:40;95640.44;;;8.98;51.66
66479;BME280;53294;47.912;13.526;2023-03-26T02:54:06;95649.97;;;9.05;51.57
66479;BME280;53294;47.912;13.526;2023-03-26T02:56:33;95630.78;;;8.97;51.47
66479;BME280;53294;47.912;13.526;2023-03-26T02:59:00;95651.94;;;8.99;51.64
66479;BME280;53294;47.912;13.526;2023-03-26T03:01:26;95651.56;;;8.92;51.84
66479;BME280;53294;47.912;13.526;2023-03-26T03:03:56;95645.38;;;8.91;52.02
66479;BME280;53294;47.912;13.526;2023-03-26T03:06:23;95632.09;;;9.00;51.60
66479;BME280;53294;47.912;13.526;2023-03-26T03:08:51;95641.50;;;9.11;51.67
66479;BME280;53294;47.912;13.526;2023-03-26T03:11:19;95649.16;;;9.04;51.88
66479;BME280;53294;47.912;13.526;2023-03-26T03:13:52;95654.41;;;9.09;51.81
66479;BME280;53294;47.912;13.526;2023-03-26T03:16:19;95643.00;;;9.04;51.47
66479;BME280;53294;47.912;13.526;2023-03-26T03:18:46;95650.75;;;9.05;51.46
66479;BME280;53294;47.912;13.526;2023-03-26T03:21:20;95640.72;;;8.97;51.68
66479;BME280;53294;47.912;13.526;2023-03-26T03:23:47;95649.34;;;8.94;51.82
66479;BME280;53294;47.912;13.526;2023-03-26T03:26:17;95646.78;;;8.89;51.77
66479;BME280;53294;47.912;13.526;2023-03-26T03:28:49;95645.38;;;8.91;51.79
66479;BME280;53294;47.912;13.526;2023-03-26T03:31:17;95634.28;;;8.98;51.64
66479;BME280;53294;47.912;13.526;2023-03-26T03:33:44;95641.13;;;8.76;52.02
66479;BME280;53294;47.912;13.526;2023-03-26T03:36:13;95641.78;;;8.68;52.86
66479;BME280;53294;47.912;13.526;2023-03-26T03:38:47;95641.56;;;8.51;53.36
66479;BME280;53294;47.912;13.526;2023-03-26T03:41:14;95638.47;;;8.43;54.41
66479;BME280;53294;47.912;13.526;2023-03-26T03:43:43;95639.72;;;8.32;54.67
66479;BME280;53294;47.912;13.526;2023-03-26T03:46:10;95625.31;;;8.47;53.58
66479;BME280;53294;47.912;13.526;2023-03-26T03:48:37;95631.34;;;8.20;54.98
66479;BME280;53294;47.912;13.526;2023-03-26T03:51:04;95631.44;;;8.15;55.13
66479;BME280;53294;47.912;13.526;2023-03-26T03:53:31;95634.16;;;8.29;54.72
66479;BME280;53294;47.912;13.526;2023-03-26T03:56:03;95636.88;;;8.09;55.90
66479;BME280;53294;47.912;13.526;2023-03-26T03:58:36;95635.88;;;8.05;56.23
66479;BME280;53294;47.912;13.526;2023-03-26T04:01:02;95636.47;;;8.02;56.27
66479;BME280;53294;47.912;13.526;2023-03-26T04:03:30;95638.97;;;7.94;57.22
66479;BME280;53294;47.912;13.526;2023-03-26T04:06:00;95634.44;;;7.94;57.24
66479;BME280;53294;47.912;13.526;2023-03-26T04:08:26;95628.81;;;7.77;58.63
66479;BME280;53294;47.912;13.526;2023-03-26T04:10:53;95625.78;;;7.64;59.10
66479;BME280;53294;47.912;13.526;2023-03-26T04:13:20;95626.59;;;7.65;59.63
66479;BME280;53294;47.912;13.526;2023-03-26T04:15:46;95624.56;;;7.57;59.83
66479;BME280;53294;47.912;13.526;2023-03-26T04:18:13;95621.75;;;7.48;60.13
66479;BME280;53294;47.912;13.526;2023-03-26T04:20:42;95623.97;;;7.41;60.93
66479;BME280;53294;47.912;13.526;2023-03-26T04:23:13;95615.25;;;7.35;61.18
66479;BME280;53294;47.912;13.526;2023-03-26T04:25:45;95609.63;;;7.36;61.31
66479;BME280;53294;47.912;13.526;2023-03-26T04:28:30;95607.38;;;7.25;62.37
66479;BME280;53294;47.912;13.526;2023-03-26T04:30:59;95601.94;;;7.11;63.14
66479;BME280;53294;47.912;13.526;2023-03-26T04:33:32;95595.13;;;6.99;63.65
66479;BME280;53294;47.912;13.526;2023-03-26T04:35:59;95589.91;;;6.89;64.19
66479;BME280;53294;47.912;13.526;2023-03-26T04:38:32;95589.91;;;6.89;64.12
66479;BME280;53294;47.912;13.526;2023-03-26T04:41:02;95581.91;;;6.89;64.54
66479;BME280;53294;47.912;13.526;2023-03-26T04:43:33;95582.69;;;6.90;64.49
66479;BME280;53294;47.912;13.526;2023-03-26T04:46:08;95580.88;;;6.85;64.49
66479;BME280;53294;47.912;13.526;2023-03-26T04:48:36;95580.25;;;6.93;64.21
66479;BME280;53294;47.912;13.526;2023-03-26T04:51:04;95572.75;;;6.95;63.86
66479;BME280;53294;47.912;13.526;2023-03-26T04:53:35;95585.63;;;6.88;64.20
66479;BME280;53294;47.912;13.526;2023-03-26T04:58:28;95580.63;;;7.06;63.59
66479;BME280;53294;47.912;13.526;2023-03-26T05:00:59;95573.13;;;7.27;62.25
66479;BME280;53294;47.912;13.526;2023-03-26T05:03:36;95566.59;;;7.38;62.16
66479;BME280;53294;47.912;13.526;2023-03-26T05:06:04;95550.69;;;7.47;61.29
66479;BME280;53294;47.912;13.526;2023-03-26T05:08:31;95549.28;;;7.68;60.69
66479;BME280;53294;47.912;13.526;2023-03-26T05:10:58;95546.84;;;7.86;60.29
66479;BME280;53294;47.912;13.526;2023-03-26T05:13:24;95549.78;;;8.03;59.42
66479;BME280;53294;47.912;13.526;2023-03-26T05:15:51;95547.03;;;8.22;58.83
66479;BME280;53294;47.912;13.526;2023-03-26T05:18:18;95547.34;;;8.35;58.41
66479;BME280;53294;47.912;13.526;2023-03-26T05:20:44;95551.16;;;8.48;58.18
66479;BME280;53294;47.912;13.526;2023-03-26T05:23:11;95535.88;;;8.62;57.50
66479;BME280;53294;47.912;13.526;2023-03-26T05:25:38;95539.44;;;8.85;56.82
66479;BME280;53294;47.912;13.526;2023-03-26T05:28:05;95534.47;;;9.06;56.38
66479;BME280;53294;47.912;13.526;2023-03-26T05:30:31;95533.09;;;8.95;56.44
66479;BME280;53294;47.912;13.526;2023-03-26T05:32:58;95544.16;;;9.16;55.86
66479;BME280;53294;47.912;13.526;2023-03-26T05:35:25;95543.25;;;9.21;55.88
66479;BME280;53294;47.912;13.526;2023-03-26T05:37:51;95536.38;;;9.28;55.57
66479;BME280;53294;47.912;13.526;2023-03-26T05:40:18;95536.16;;;9.39;55.53
66479;BME280;53294;47.912;13.526;2023-03-26T05:42:45;95536.09;;;8.79;57.17
66479;BME280;53294;47.912;13.526;2023-03-26T05:45:14;95538.78;;;8.79;57.98
66479;BME280;53294;47.912;13.526;2023-03-26T05:47:41;95547.72;;;8.28;58.61
66479;BME280;53294;47.912;13.526;2023-03-26T05:50:08;95540.84;;;8.69;57.56
66479;BME280;53294;47.912;13.526;2023-03-26T05:52:35;95547.59;;;8.80;57.27
66479;BME280;53294;47.912;13.526;2023-03-26T05:55:02;95545.91;;;8.98;57.06
66479;BME280;53294;47.912;13.526;2023-03-26T05:57:30;95547.56;;;8.94;57.39
66479;BME280;53294;47.912;13.526;2023-03-26T05:59:56;95544.56;;;9.09;56.75
66479;BME280;53294;47.912;13.526;2023-03-26T06:02:23;95548.88;;;9.33;56.54
66479;BME280;53294;47.912;13.526;2023-03-26T06:04:50;95555.50;;;8.99;57.39
66479;BME280;53294;47.912;13.526;2023-03-26T06:07:18;95550.59;;;9.15;56.78
66479;BME280;53294;47.912;13.526;2023-03-26T06:09:45;95555.56;;;9.22;57.37
66479;BME280;53294;47.912;13.526;2023-03-26T06:12:12;95553.72;;;9.45;56.47
66479;BME280;53294;47.912;13.526;2023-03-26T06:14:39;95560.25;;;9.52;58.18
66479;BME280;53294;47.912;13.526;2023-03-26T06:17:08;95559.16;;;9.03;58.83
66479;BME280;53294;47.912;13.526;2023-03-26T06:19:35;95566.22;;;8.71;60.28
66479;BME280;53294;47.912;13.526;2023-03-26T06:22:03;95570.41;;;8.17;61.65
66479;BME280;53294;47.912;13.526;2023-03-26T06:24:31;95569.09;;;8.00;62.58
66479;BME280;53294;47.912;13.526;2023-03-26T06:26:58;95563.47;;;7.83;64.07
66479;BME280;53294;47.912;13.526;2023-03-26T06:29:25;95562.16;;;7.66;64.87
66479;BME280;53294;47.912;13.526;2023-03-26T06:31:52;95571.25;;;7.65;64.90
66479;BME280;53294;47.912;13.526;2023-03-26T06:34:19;95570.97;;;7.48;64.88
66479;BME280;53294;47.912;13.526;2023-03-26T06:36:46;95561.81;;;7.54;64.90
66479;BME280;53294;47.912;13.526;2023-03-26T06:39:14;95576.97;;;7.40;65.53
66479;BME280;53294;47.912;13.526;2023-03-26T06:41:41;95576.16;;;7.39;65.80
66479;BME280;53294;47.912;13.526;2023-03-26T06:44:08;95556.97;;;7.37;64.98
66479;BME280;53294;47.912;13.526;2023-03-26T06:46:35;95551.69;;;7.51;65.45
66479;BME280;53294;47.912;13.526;2023-03-26T06:49:02;95554.06;;;7.52;64.96
66479;BME280;53294;47.912;13.526;2023-03-26T06:51:28;95554.44;;;7.46;64.88
66479;BME280;53294;47.912;13.526;2023-03-26T06:53:55;95549.81;;;7.51;64.04
66479;BME280;53294;47.912;13.526;2023-03-26T06:56:22;95557.19;;;7.41;64.30
66479;BME280;53294;47.912;13.526;2023-03-26T06:58:48;95542.59;;;7.52;64.33
66479;BME280;53294;47.912;13.526;2023-03-26T07:01:15;95544.91;;;7.40;64.13
66479;BME280;53294;47.912;13.526;2023-03-26T07:03:42;95536.53;;;7.27;64.54
66479;BME280;53294;47.912;13.526;2023-03-26T07:06:09;95528.59;;;7.22;64.41
66479;BME280;53294;47.912;13.526;2023-03-26T07:08:35;95521.69;;;7.21;64.96
66479;BME280;53294;47.912;13.526;2023-03-26T07:11:02;95518.19;;;7.01;66.03
66479;BME280;53294;47.912;13.526;2023-03-26T07:13:29;95513.72;;;7.16;67.13
66479;BME280;53294;47.912;13.526;2023-03-26T07:15:55;95502.38;;;7.05;67.27
66479;BME280;53294;47.912;13.526;2023-03-26T07:18:22;95496.34;;;6.99;68.53
66479;BME280;53294;47.912;13.526;2023-03-26T07:20:49;95491.78;;;7.00;68.77
66479;BME280;53294;47.912;13.526;2023-03-26T07:23:16;95478.63;;;7.04;69.88
66479;BME280;53294;47.912;13.526;2023-03-26T07:25:47;95482.41;;;7.03;69.10
66479;BME280;53294;47.912;13.526;2023-03-26T07:31:02;95469.41;;;7.15;69.05
66479;BME280;53294;47.912;13.526;2023-03-26T07:37:04;95437.47;;;7.43;66.62
66479;BME280;53294;47.912;13.526;2023-03-26T07:39:41;95433.53;;;7.54;66.54
66479;BME280;53294;47.912;13.526;2023-03-26T07:45:02;95426.75;;;8.03;65.66
66479;BME280;53294;47.912;13.526;2023-03-26T07:47:40;95420.81;;;8.06;65.06
66479;BME280;53294;47.912;13.526;2023-03-26T07:50:14;95413.34;;;8.31;65.79
66479;BME280;53294;47.912;13.526;2023-03-26T07:52:44;95407.22;;;8.44;63.51
66479;BME280;53294;47.912;13.526;2023-03-26T07:55:12;95401.44;;;8.37;61.52
66479;BME280;53294;47.912;13.526;2023-03-26T08:00:20;95394.69;;;8.68;61.39
66479;BME280;53294;47.912;13.526;2023-03-26T08:05:52;95382.25;;;9.08;61.22
66479;BME280;53294;47.912;13.526;2023-03-26T08:16:48;95355.66;;;9.75;59.46
66479;BME280;53294;47.912;13.526;2023-03-26T08:22:25;95354.41;;;9.81;59.35
66479;BME280;53294;47.912;13.526;2023-03-26T08:25:05;95345.78;;;9.52;60.28
66479;BME280;53294;47.912;13.526;2023-03-26T08:27:40;95342.75;;;9.85;59.38
66479;BME280;53294;47.912;13.526;2023-03-26T08:30:18;95331.63;;;10.18;58.54
66479;BME280;53294;47.912;13.526;2023-03-26T08:35:39;95309.25;;;10.58;57.13
66479;BME280;53294;47.912;13.526;2023-03-26T08:38:12;95306.91;;;10.65;56.61
66479;BME280;53294;47.912;13.526;2023-03-26T09:00:15;95238.13;;;9.68;58.46
66479;BME280;53294;47.912;13.526;2023-03-26T09:02:56;95236.53;;;9.67;57.79
66479;BME280;53294;47.912;13.526;2023-03-26T09:16:23;95199.97;;;10.23;56.39
66479;BME280;53294;47.912;13.526;2023-03-26T09:19:10;95193.50;;;10.07;56.38
66479;BME280;53294;47.912;13.526;2023-03-26T09:36:06;95169.66;;;11.05;54.22
66479;BME280;53294;47.912;13.526;2023-03-26T09:38:14;95157.66;;;11.32;53.91
66479;BME280;53294;47.912;13.526;2023-03-26T09:47:17;95140.84;;;11.95;52.54
66479;BME280;53294;47.912;13.526;2023-03-26T09:49:52;95126.50;;;12.03;51.96
66479;BME280;53294;47.912;13.526;2023-03-26T10:05:51;95107.72;;;12.16;51.17
66479;BME280;53294;47.912;13.526;2023-03-26T10:27:38;95042.91;;;13.57;48.44
66479;BME280;53294;47.912;13.526;2023-03-26T10:36:05;95040.97;;;13.98;47.32
66479;BME280;53294;47.912;13.526;2023-03-26T10:52:33;95042.41;;;13.67;44.69
66479;BME280;53294;47.912;13.526;2023-03-26T10:55:14;95042.72;;;13.78;44.94
66479;BME280;53294;47.912;13.526;2023-03-26T10:57:51;95042.06;;;13.69;46.02
66479;BME280;53294;47.912;13.526;2023-03-26T11:00:23;95038.13;;;14.07;45.69
66479;BME280;53294;47.912;13.526;2023-03-26T11:13:59;95065.91;;;14.51;45.37
66479;BME280;53294;47.912;13.526;2023-03-26T11:22:38;95110.38;;;14.26;45.54
66479;BME280;53294;47.912;13.526;2023-03-26T11:30:50;95154.03;;;13.87;45.52
66479;BME280;53294;47.912;13.526;2023-03-26T11:33:25;95131.19;;;13.97;46.70
66479;BME280;53294;47.912;13.526;2023-03-26T11:36:05;95125.31;;;13.95;46.71
66479;BME280;53294;47.912;13.526;2023-03-26T11:38:46;95120.63;;;13.92;47.69
66479;BME280;53294;47.912;13.526;2023-03-26T11:41:19;95132.28;;;14.08;48.19
66479;BME280;53294;47.912;13.526;2023-03-26T11:43:55;95130.91;;;14.14;47.95
66479;BME280;53294;47.912;13.526;2023-03-26T11:46:24;95123.91;;;14.13;48.30
66479;BME280;53294;47.912;13.526;2023-03-26T11:48:54;95105.34;;;14.12;47.67
66479;BME280;53294;47.912;13.526;2023-03-26T11:51:31;95085.59;;;14.08;48.18
66479;BME280;53294;47.912;13.526;2023-03-26T11:54:00;95066.69;;;14.08;48.30
66479;BME280;53294;47.912;13.526;2023-03-26T11:56:46;95059.28;;;13.64;49.43
66479;BME280;53294;47.912;13.526;2023-03-26T11:59:51;95071.94;;;13.10;50.67
66479;BME280;53294;47.912;13.526;2023-03-26T12:02:29;95100.44;;;11.02;54.39
66479;BME280;53294;47.912;13.526;2023-03-26T12:07:48;95091.81;;;10.32;57.78
66479;BME280;53294;47.912;13.526;2023-03-26T12:12:53;95086.94;;;10.43;58.13
66479;BME280;53294;47.912;13.526;2023-03-26T12:15:21;95083.03;;;10.70;56.14
66479;BME280;53294;47.912;13.526;2023-03-26T12:17:52;95096.06;;;10.89;55.21
66479;BME280;53294;47.912;13.526;2023-03-26T12:22:52;95098.50;;;10.73;56.25
66479;BME280;53294;47.912;13.526;2023-03-26T12:25:27;95097.66;;;10.90;56.32
66479;BME280;53294;47.912;13.526;2023-03-26T12:30:40;95099.34;;;11.24;57.49
66479;BME280;53294;47.912;13.526;2023-03-26T12:33:33;95098.53;;;11.03;56.82
66479;BME280;53294;47.912;13.526;2023-03-26T12:36:22;95085.31;;;10.89;58.03
66479;BME280;53294;47.912;13.526;2023-03-26T12:38:52;95073.03;;;11.09;56.91
66479;BME280;53294;47.912;13.526;2023-03-26T12:41:40;95070.19;;;11.35;55.86
66479;BME280;53294;47.912;13.526;2023-03-26T12:44:34;95070.50;;;11.12;55.91
66479;BME280;53294;47.912;13.526;2023-03-26T12:47:24;95056.56;;;11.19;56.92
66479;BME280;53294;47.912;13.526;2023-03-26T12:50:14;95040.25;;;10.94;57.26
66479;BME280;53294;47.912;13.526;2023-03-26T12:55:39;95023.38;;;11.15;57.48
66479;BME280;53294;47.912;13.526;2023-03-26T12:58:31;95023.50;;;11.40;56.48
66479;BME280;53294;47.912;13.526;2023-03-26T13:01:19;95026.88;;;11.91;55.64
66479;BME280;53294;47.912;13.526;2023-03-26T13:06:29;95027.38;;;11.93;55.97
66479;BME280;53294;47.912;13.526;2023-03-26T13:12:45;95015.78;;;12.26;57.01
66479;BME280;53294;47.912;13.526;2023-03-26T13:15:20;95010.88;;;12.53;55.90
66479;BME280;53294;47.912;13.526;2023-03-26T13:18:46;94996.16;;;12.87;55.18
66479;BME280;53294;47.912;13.526;2023-03-26T13:29:48;95001.91;;;12.73;55.56
66479;BME280;53294;47.912;13.526;2023-03-26T13:35:32;94994.88;;;13.34;55.78
66479;BME280;53294;47.912;13.526;2023-03-26T13:38:38;94988.97;;;13.57;55.41
66479;BME280;53294;47.912;13.526;2023-03-26T13:41:48;94997.34;;;13.39;54.86
66479;BME280;53294;47.912;13.526;2023-03-26T13:44:47;94991.97;;;13.27;55.82
66479;BME280;53294;47.912;13.526;2023-03-26T13:47:33;94989.97;;;13.11;55.33
66479;BME280;53294;47.912;13.526;2023-03-26T13:50:17;94989.78;;;12.80;56.47
66479;BME280;53294;47.912;13.526;2023-03-26T13:52:50;94996.75;;;12.56;56.06
66479;BME280;53294;47.912;13.526;2023-03-26T13:55:33;94986.16;;;13.00;55.63
66479;BME280;53294;47.912;13.526;2023-03-26T14:03:12;94989.63;;;11.81;55.98
66479;BME280;53294;47.912;13.526;2023-03-26T14:05:46;94984.03;;;11.86;56.98
66479;BME280;53294;47.912;13.526;2023-03-26T14:08:35;94984.78;;;11.41;56.71
66479;BME280;53294;47.912;13.526;2023-03-26T14:11:12;94984.19;;;11.14;57.24
66479;BME280;53294;47.912;13.526;2023-03-26T14:13:54;94984.13;;;11.02;57.16
66479;BME280;53294;47.912;13.526;2023-03-26T14:16:28;94999.88;;;10.82;56.61
66479;BME280;53294;47.912;13.526;2023-03-26T14:27:50;94997.38;;;10.77;58.77
66479;BME280;53294;47.912;13.526;2023-03-26T14:41:38;94974.66;;;10.36;59.49
66479;BME280;53294;47.912;13.526;2023-03-26T14:44:22;94964.88;;;10.40;60.29
66479;BME280;53294;47.912;13.526;2023-03-26T14:47:20;94948.13;;;10.43;55.93
66479;BME280;53294;47.912;13.526;2023-03-26T14:52:49;94961.06;;;9.94;59.46
66479;BME280;53294;47.912;13.526;2023-03-26T15:01:05;94982.19;;;10.04;56.04
66479;BME280;53294;47.912;13.526;2023-03-26T15:09:10;94962.03;;;9.80;56.52
66479;BME280;53294;47.912;13.526;2023-03-26T15:20:44;94945.94;;;9.80;55.17
66479;BME280;53294;47.912;13.526;2023-03-26T15:58:59;94934.69;;;9.40;57.78
66479;BME280;53294;47.912;13.526;2023-03-26T16:01:41;94935.31;;;9.45;57.83
66479;BME280;53294;47.912;13.526;2023-03-26T16:04:34;94941.72;;;9.70;56.29
66479;BME280;53294;47.912;13.526;2023-03-26T16:09:51;94945.44;;;9.31;58.83
66479;BME280;53294;47.912;13.526;2023-03-26T16:12:33;94952.97;;;9.29;57.77
66479;BME280;53294;47.912;13.526;2023-03-26T16:15:21;94948.25;;;9.26;59.23
66479;BME280;53294;47.912;13.526;2023-03-26T16:20:44;94956.94;;;9.40;58.36
66479;BME280;53294;47.912;13.526;2023-03-26T16:29:19;94969.00;;;8.59;62.74
66479;BME280;53294;47.912;13.526;2023-03-26T16:37:33;94962.78;;;8.41;63.56
66479;BME280;53294;47.912;13.526;2023-03-26T16:45:54;94956.31;;;8.42;62.49
66479;BME280;53294;47.912;13.526;2023-03-26T16:54:24;94937.72;;;8.28;62.31
66479;BME280;53294;47.912;13.526;2023-03-26T16:57:30;94944.03;;;8.32;61.60
66479;BME280;53294;47.912;13.526;2023-03-26T17:13:13;94898.75;;;8.44;61.69
66479;BME280;53294;47.912;13.526;2023-03-26T17:16:03;94888.25;;;8.83;60.30
66479;BME280;53294;47.912;13.526;2023-03-26T17:21:42;94901.47;;;9.23;59.01
66479;BME280;53294;47.912;13.526;2023-03-26T17:27:15;94901.44;;;9.41;58.04
66479;BME280;53294;47.912;13.526;2023-03-26T17:29:59;94905.97;;;9.58;57.27
66479;BME280;53294;47.912;13.526;2023-03-26T17:32:51;94901.88;;;9.51;56.79
66479;BME280;53294;47.912;13.526;2023-03-26T17:35:16;94899.31;;;9.64;55.32
66479;BME280;53294;47.912;13.526;2023-03-26T17:37:44;94899.38;;;9.46;53.86
66479;BME280;53294;47.912;13.526;2023-03-26T17:43:36;94882.94;;;9.57;53.89
66479;BME280;53294;47.912;13.526;2023-03-26T17:51:59;94867.47;;;9.71;54.53
66479;BME280;53294;47.912;13.526;2023-03-26T17:54:49;94851.84;;;10.03;54.93
66479;BME280;53294;47.912;13.526;2023-03-26T17:57:37;94854.28;;;10.17;54.57
66479;BME280;53294;47.912;13.526;2023-03-26T18:00:13;94850.44;;;10.27;54.04
66479;BME280;53294;47.912;13.526;2023-03-26T18:02:46;94842.38;;;10.35;54.16
66479;BME280;53294;47.912;13.526;2023-03-26T18:05:16;94847.94;;;10.51;53.67
66479;BME280;53294;47.912;13.526;2023-03-26T18:10:39;94860.31;;;10.44;54.32
66479;BME280;53294;47.912;13.526;2023-03-26T18:16:10;94882.22;;;10.16;56.00
66479;BME280;53294;47.912;13.526;2023-03-26T18:18:50;94870.31;;;9.96;55.81
66479;BME280;53294;47.912;13.526;2023-03-26T18:23:51;94877.91;;;9.94;55.87
66479;BME280;53294;47.912;13.526;2023-03-26T18:26:34;94883.00;;;9.86;56.15
66479;BME280;53294;47.912;13.526;2023-03-26T18:29:34;94877.06;;;9.72;56.52
66479;BME280;53294;47.912;13.526;2023-03-26T18:34:33;94861.84;;;9.46;57.16
66479;BME280;53294;47.912;13.526;2023-03-26T18:37:12;94852.22;;;9.54;57.00
66479;BME280;53294;47.912;13.526;2023-03-26T18:40:07;94848.56;;;9.59;56.58
66479;BME280;53294;47.912;13.526;2023-03-26T18:42:40;94843.78;;;9.73;55.77
66479;BME280;53294;47.912;13.526;2023-03-26T18:45:28;94851.94;;;9.85;56.68
66479;BME280;53294;47.912;13.526;2023-03-26T18:47:59;94856.78;;;9.92;56.19
66479;BME280;53294;47.912;13.526;2023-03-26T18:50:29;94859.03;;;9.81;55.99
66479;BME280;53294;47.912;13.526;2023-03-26T18:53:00;94856.66;;;9.88;54.90
66479;BME280;53294;47.912;13.526;2023-03-26T18:55:28;94849.06;;;9.91;54.87
66479;BME280;53294;47.912;13.526;2023-03-26T18:57:56;94848.97;;;10.08;53.99
66479;BME280;53294;47.912;13.526;2023-03-26T19:00:25;94848.97;;;10.08;53.82
66479;BME280;53294;47.912;13.526;2023-03-26T19:03:02;94847.72;;;9.76;52.75
66479;BME280;53294;47.912;13.526;2023-03-26T19:05:31;94851.91;;;9.56;53.18
66479;BME280;53294;47.912;13.526;2023-03-26T19:08:00;94840.41;;;9.46;52.58
66479;BME280;53294;47.912;13.526;2023-03-26T19:10:31;94833.66;;;9.40;52.73
66479;BME280;53294;47.912;13.526;2023-03-26T19:13:01;94834.16;;;9.25;52.67
66479;BME280;53294;47.912;13.526;2023-03-26T19:15:31;94820.59;;;9.30;52.65
66479;BME280;53294;47.912;13.526;2023-03-26T19:18:02;94821.47;;;9.43;52.44
66479;BME280;53294;47.912;13.526;2023-03-26T19:20:39;94810.63;;;9.39;52.90
66479;BME280;53294;47.912;13.526;2023-03-26T19:23:08;94802.16;;;9.67;52.46